sensor_id;sensor_type;location;lat;lon;timestamp;temperature;humidity
33207;DHT22;19565;46.602;11.534;2023-11-19T00:00:26;4.90;99.90
33207;DHT22;19565;46.602;11.534;2023-11-19T00:02:54;4.80;99.90
33207;DHT22;19565;46.602;11.534;2023-11-19T00:05:22;4.80;99.90
33207;DHT22;19565;46.602;11.534;2023-11-19T00:07:50;4.90;99.90
33207;DHT22;19565;46.602;11.534;2023-11-19T00:10:18;5.00;99.90
33207;DHT22;19565;46.602;11.534;2023-11-19T00:12:47;5.10;99.90
33207;DHT22;19565;46.602;11.534;2023-11-19T00:15:18;4.90;99.90
33207;DHT22;19565;46.602;11.534;2023-11-19T00:17:47;4.90;99.90
33207;DHT22;19565;46.602;11.534;2023-11-19T00:20:17;5.00;99.90
33207;DHT22;19565;46.602;11.534;2023-11-19T00:22:45;5.20;99.90
33207;DHT22;19565;46.602;11.534;2023-11-19T00:25:16;5.20;99.90
33207;DHT22;19565;46.602;11.534;2023-11-19T00:27:44;5.10;99.90
33207;DHT22;19565;46.602;11.534;2023-11-19T00:30:13;5.20;99.90
33207;DHT22;19565;46.602;11.534;2023-11-19T00:32:43;5.20;99.90
33207;DHT22;19565;46.602;11.534;2023-11-19T00:35:12;5.20;99.90
33207;DHT22;19565;46.602;11.534;2023-11-19T00:37:41;5.20;99.90
33207;DHT22;19565;46.602;11.534;2023-11-19T00:40:12;5.20;99.90
33207;DHT22;19565;46.602;11.534;2023-11-19T00:42:43;5.20;99.90
33207;DHT22;19565;46.602;11.534;2023-11-19T00:45:11;5.30;99.90
33207;DHT22;19565;46.602;11.534;2023-11-19T00:47:40;5.30;99.90
33207;DHT22;19565;46.602;11.534;2023-11-19T00:50:10;5.30;99.90
33207;DHT22;19565;46.602;11.534;2023-11-19T00:52:39;5.30;99.90
33207;DHT22;19565;46.602;11.534;2023-11-19T00:55:08;5.40;99.90
33207;DHT22;19565;46.602;11.534;2023-11-19T00:57:36;5.40;99.90
33207;DHT22;19565;46.602;11.534;2023-11-19T01:00:05;5.40;99.90
33207;DHT22;19565;46.602;11.534;2023-11-19T01:02:36;5.30;99.90
33207;DHT22;19565;46.602;11.534;2023-11-19T01:05:07;5.30;99.90
33207;DHT22;19565;46.602;11.534;2023-11-19T01:07:37;5.30;99.90
33207;DHT22;19565;46.602;11.534;2023-11-19T01:10:06;5.20;99.90
33207;DHT22;19565;46.602;11.534;2023-11-19T01:12:35;5.20;99.90
33207;DHT22;19565;46.602;11.534;2023-11-19T01:15:05;5.20;99.90
33207;DHT22;19565;46.602;11.534;2023-11-19T01:17:33;5.10;99.90
33207;DHT22;19565;46.602;11.534;2023-11-19T01:20:02;5.10;99.90
33207;DHT22;19565;46.602;11.534;2023-11-19T01:22:33;5.10;99.90
33207;DHT22;19565;46.602;11.534;2023-11-19T01:25:02;5.10;99.90
33207;DHT22;19565;46.602;11.534;2023-11-19T01:27:32;5.10;99.90
33207;DHT22;19565;46.602;11.534;2023-11-19T01:30:01;5.20;99.90
33207;DHT22;19565;46.602;11.534;2023-11-19T01:32:30;5.20;99.90
33207;DHT22;19565;46.602;11.534;2023-11-19T01:34:58;5.20;99.90
33207;DHT22;19565;46.602;11.534;2023-11-19T01:37:26;5.20;99.90
33207;DHT22;19565;46.602;11.534;2023-11-19T01:39:54;5.10;99.90
33207;DHT22;19565;46.602;11.534;2023-11-19T01:42:26;5.00;99.90
33207;DHT22;19565;46.602;11.534;2023-11-19T01:44:57;4.90;99.90
33207;DHT22;19565;46.602;11.534;2023-11-19T01:47:26;4.90;99.90
33207;DHT22;19565;46.602;11.534;2023-11-19T01:49:54;5.00;99.90
33207;DHT22;19565;46.602;11.534;2023-11-19T01:52:23;5.00;99.90
33207;DHT22;19565;46.602;11.534;2023-11-19T01:54:54;4.80;99.90
33207;DHT22;19565;46.602;11.534;2023-11-19T01:57:23;4.80;99.90
33207;DHT22;19565;46.602;11.534;2023-11-19T01:59:53;4.60;99.90
33207;DHT22;19565;46.602;11.534;2023-11-19T02:02:21;4.40;99.90
33207;DHT22;19565;46.602;11.534;2023-11-19T02:04:51;4.50;99.90
33207;DHT22;19565;46.602;11.534;2023-11-19T02:07:20;4.70;99.90
33207;DHT22;19565;46.602;11.534;2023-11-19T02:09:47;4.80;99.90
33207;DHT22;19565;46.602;11.534;2023-11-19T02:12:15;4.90;99.90
33207;DHT22;19565;46.602;11.534;2023-11-19T02:14:43;4.90;99.90
33207;DHT22;19565;46.602;11.534;2023-11-19T02:17:26;4.90;99.90
33207;DHT22;19565;46.602;11.534;2023-11-19T02:19:55;4.90;99.90
33207;DHT22;19565;46.602;11.534;2023-11-19T02:22:23;4.90;99.90
33207;DHT22;19565;46.602;11.534;2023-11-19T02:24:56;5.00;99.90
33207;DHT22;19565;46.602;11.534;2023-11-19T02:27:30;5.00;99.90
33207;DHT22;19565;46.602;11.534;2023-11-19T02:30:00;5.00;99.90
33207;DHT22;19565;46.602;11.534;2023-11-19T02:32:30;5.10;99.90
33207;DHT22;19565;46.602;11.534;2023-11-19T02:34:58;5.00;99.90
33207;DHT22;19565;46.602;11.534;2023-11-19T02:37:34;5.00;99.90
33207;DHT22;19565;46.602;11.534;2023-11-19T02:40:02;5.00;99.90
33207;DHT22;19565;46.602;11.534;2023-11-19T02:42:31;5.10;99.90
33207;DHT22;19565;46.602;11.534;2023-11-19T02:45:01;5.10;99.90
33207;DHT22;19565;46.602;11.534;2023-11-19T02:47:33;5.10;99.90
33207;DHT22;19565;46.602;11.534;2023-11-19T02:50:01;5.20;99.90
33207;DHT22;19565;46.602;11.534;2023-11-19T02:52:30;5.20;99.90
33207;DHT22;19565;46.602;11.534;2023-11-19T02:55:01;5.20;99.90
33207;DHT22;19565;46.602;11.534;2023-11-19T02:57:31;5.30;99.90
33207;DHT22;19565;46.602;11.534;2023-11-19T03:00:02;5.30;99.90
33207;DHT22;19565;46.602;11.534;2023-11-19T03:02:39;5.30;99.90
33207;DHT22;19565;46.602;11.534;2023-11-19T03:05:12;5.30;99.90
33207;DHT22;19565;46.602;11.534;2023-11-19T03:07:41;5.30;99.90
33207;DHT22;19565;46.602;11.534;2023-11-19T03:10:11;5.20;99.90
33207;DHT22;19565;46.602;11.534;2023-11-19T03:12:40;5.20;99.90
33207;DHT22;19565;46.602;11.534;2023-11-19T03:15:10;5.20;99.90
33207;DHT22;19565;46.602;11.534;2023-11-19T03:17:39;5.30;99.90
33207;DHT22;19565;46.602;11.534;2023-11-19T03:20:09;5.40;99.90
33207;DHT22;19565;46.602;11.534;2023-11-19T03:22:37;5.40;99.90
33207;DHT22;19565;46.602;11.534;2023-11-19T03:25:06;5.40;99.90
33207;DHT22;19565;46.602;11.534;2023-11-19T03:27:35;5.40;99.90
33207;DHT22;19565;46.602;11.534;2023-11-19T03:30:04;5.40;99.90
33207;DHT22;19565;46.602;11.534;2023-11-19T03:32:33;5.40;99.90
33207;DHT22;19565;46.602;11.534;2023-11-19T03:35:02;5.30;99.90
33207;DHT22;19565;46.602;11.534;2023-11-19T03:37:31;5.30;99.90
33207;DHT22;19565;46.602;11.534;2023-11-19T03:40:00;5.30;99.90
33207;DHT22;19565;46.602;11.534;2023-11-19T03:42:29;5.30;99.90
33207;DHT22;19565;46.602;11.534;2023-11-19T03:44:57;5.30;99.90
33207;DHT22;19565;46.602;11.534;2023-11-19T03:47:25;5.20;99.90
33207;DHT22;19565;46.602;11.534;2023-11-19T03:49:55;5.20;99.90
33207;DHT22;19565;46.602;11.534;2023-11-19T03:52:23;5.10;99.90
33207;DHT22;19565;46.602;11.534;2023-11-19T03:54:53;5.10;99.90
33207;DHT22;19565;46.602;11.534;2023-11-19T03:57:22;5.10;99.90
33207;DHT22;19565;46.602;11.534;2023-11-19T03:59:50;5.20;99.90
33207;DHT22;19565;46.602;11.534;2023-11-19T04:02:18;5.20;99.90
33207;DHT22;19565;46.602;11.534;2023-11-19T04:04:46;5.20;99.90
33207;DHT22;19565;46.602;11.534;2023-11-19T04:07:16;5.30;99.90
33207;DHT22;19565;46.602;11.534;2023-11-19T04:09:44;5.30;99.90
33207;DHT22;19565;46.602;11.534;2023-11-19T04:12:13;5.30;99.90
33207;DHT22;19565;46.602;11.534;2023-11-19T04:14:41;5.10;99.90
33207;DHT22;19565;46.602;11.534;2023-11-19T04:17:09;5.00;99.90
33207;DHT22;19565;46.602;11.534;2023-11-19T04:19:37;5.00;99.90
33207;DHT22;19565;46.602;11.534;2023-11-19T04:22:08;4.90;99.90
33207;DHT22;19565;46.602;11.534;2023-11-19T04:24:37;4.90;99.90
33207;DHT22;19565;46.602;11.534;2023-11-19T04:27:05;4.90;99.90
33207;DHT22;19565;46.602;11.534;2023-11-19T04:29:34;5.00;99.90
33207;DHT22;19565;46.602;11.534;2023-11-19T04:32:02;5.10;99.90
33207;DHT22;19565;46.602;11.534;2023-11-19T04:34:32;5.10;99.90
33207;DHT22;19565;46.602;11.534;2023-11-19T04:37:00;5.10;99.90
33207;DHT22;19565;46.602;11.534;2023-11-19T04:39:32;5.10;99.90
33207;DHT22;19565;46.602;11.534;2023-11-19T04:42:02;5.10;99.90
33207;DHT22;19565;46.602;11.534;2023-11-19T04:44:31;5.10;99.90
33207;DHT22;19565;46.602;11.534;2023-11-19T04:46:59;5.10;99.90
33207;DHT22;19565;46.602;11.534;2023-11-19T04:49:27;5.10;99.90
33207;DHT22;19565;46.602;11.534;2023-11-19T04:51:55;5.20;99.90
33207;DHT22;19565;46.602;11.534;2023-11-19T04:54:23;5.20;99.90
33207;DHT22;19565;46.602;11.534;2023-11-19T04:56:52;5.20;99.90
33207;DHT22;19565;46.602;11.534;2023-11-19T04:59:21;5.20;99.90
33207;DHT22;19565;46.602;11.534;2023-11-19T05:01:49;5.10;99.90
33207;DHT22;19565;46.602;11.534;2023-11-19T05:04:17;5.20;99.90
33207;DHT22;19565;46.602;11.534;2023-11-19T05:06:46;5.20;99.90
33207;DHT22;19565;46.602;11.534;2023-11-19T05:09:14;5.30;99.90
33207;DHT22;19565;46.602;11.534;2023-11-19T05:11:42;5.30;99.90
33207;DHT22;19565;46.602;11.534;2023-11-19T05:14:13;5.30;99.90
33207;DHT22;19565;46.602;11.534;2023-11-19T05:16:42;5.30;99.90
33207;DHT22;19565;46.602;11.534;2023-11-19T05:19:10;5.30;99.90
33207;DHT22;19565;46.602;11.534;2023-11-19T05:21:38;5.30;99.90
33207;DHT22;19565;46.602;11.534;2023-11-19T05:24:06;5.40;99.90
33207;DHT22;19565;46.602;11.534;2023-11-19T05:26:34;5.30;99.90
33207;DHT22;19565;46.602;11.534;2023-11-19T05:29:02;5.10;99.90
33207;DHT22;19565;46.602;11.534;2023-11-19T05:31:31;5.10;99.90
33207;DHT22;19565;46.602;11.534;2023-11-19T05:34:04;5.20;99.90
33207;DHT22;19565;46.602;11.534;2023-11-19T05:36:34;5.10;99.90
33207;DHT22;19565;46.602;11.534;2023-11-19T05:39:02;5.10;99.90
33207;DHT22;19565;46.602;11.534;2023-11-19T05:41:31;5.00;99.90
33207;DHT22;19565;46.602;11.534;2023-11-19T05:43:59;5.10;99.90
33207;DHT22;19565;46.602;11.534;2023-11-19T05:46:28;5.00;99.90
33207;DHT22;19565;46.602;11.534;2023-11-19T05:48:56;4.80;99.90
33207;DHT22;19565;46.602;11.534;2023-11-19T05:51:26;4.90;99.90
33207;DHT22;19565;46.602;11.534;2023-11-19T05:53:54;4.90;99.90
33207;DHT22;19565;46.602;11.534;2023-11-19T05:56:22;5.00;99.90
33207;DHT22;19565;46.602;11.534;2023-11-19T05:58:51;5.10;99.90
33207;DHT22;19565;46.602;11.534;2023-11-19T06:01:19;5.20;99.90
33207;DHT22;19565;46.602;11.534;2023-11-19T06:03:47;5.30;99.90
33207;DHT22;19565;46.602;11.534;2023-11-19T06:06:17;5.20;99.90
33207;DHT22;19565;46.602;11.534;2023-11-19T06:08:46;5.00;99.90
33207;DHT22;19565;46.602;11.534;2023-11-19T06:11:14;4.80;99.90
33207;DHT22;19565;46.602;11.534;2023-11-19T06:13:45;4.70;99.90
33207;DHT22;19565;46.602;11.534;2023-11-19T06:16:14;4.70;99.90
33207;DHT22;19565;46.602;11.534;2023-11-19T06:18:43;4.70;99.90
33207;DHT22;19565;46.602;11.534;2023-11-19T06:21:12;4.70;99.90
33207;DHT22;19565;46.602;11.534;2023-11-19T06:23:40;4.60;99.90
33207;DHT22;19565;46.602;11.534;2023-11-19T06:26:10;4.60;99.90
33207;DHT22;19565;46.602;11.534;2023-11-19T06:28:38;4.70;99.90
33207;DHT22;19565;46.602;11.534;2023-11-19T06:31:06;4.80;99.90
33207;DHT22;19565;46.602;11.534;2023-11-19T06:33:34;4.80;99.90
33207;DHT22;19565;46.602;11.534;2023-11-19T06:36:02;4.80;99.90
33207;DHT22;19565;46.602;11.534;2023-11-19T06:38:30;4.80;99.90
33207;DHT22;19565;46.602;11.534;2023-11-19T06:40:58;4.80;99.90
33207;DHT22;19565;46.602;11.534;2023-11-19T06:43:27;4.80;99.90
33207;DHT22;19565;46.602;11.534;2023-11-19T06:46:14;4.80;99.90
33207;DHT22;19565;46.602;11.534;2023-11-19T06:48:43;4.90;99.90
33207;DHT22;19565;46.602;11.534;2023-11-19T06:51:11;5.00;99.90
33207;DHT22;19565;46.602;11.534;2023-11-19T06:53:39;5.10;99.90
33207;DHT22;19565;46.602;11.534;2023-11-19T06:56:18;5.20;99.90
33207;DHT22;19565;46.602;11.534;2023-11-19T06:58:47;5.20;99.90
33207;DHT22;19565;46.602;11.534;2023-11-19T07:01:15;5.20;99.90
33207;DHT22;19565;46.602;11.534;2023-11-19T07:03:45;5.20;99.90
33207;DHT22;19565;46.602;11.534;2023-11-19T07:06:14;5.10;99.90
33207;DHT22;19565;46.602;11.534;2023-11-19T07:08:42;5.20;99.90
33207;DHT22;19565;46.602;11.534;2023-11-19T07:11:12;5.30;99.90
33207;DHT22;19565;46.602;11.534;2023-11-19T07:13:41;5.40;99.90
33207;DHT22;19565;46.602;11.534;2023-11-19T07:16:10;5.50;99.90
33207;DHT22;19565;46.602;11.534;2023-11-19T07:18:38;5.40;99.90
33207;DHT22;19565;46.602;11.534;2023-11-19T07:21:06;5.30;99.90
33207;DHT22;19565;46.602;11.534;2023-11-19T07:23:37;5.30;99.90
33207;DHT22;19565;46.602;11.534;2023-11-19T07:26:06;5.30;99.90
33207;DHT22;19565;46.602;11.534;2023-11-19T07:28:36;5.30;99.90
33207;DHT22;19565;46.602;11.534;2023-11-19T07:31:04;5.30;99.90
33207;DHT22;19565;46.602;11.534;2023-11-19T07:33:35;5.30;99.90
33207;DHT22;19565;46.602;11.534;2023-11-19T07:36:04;5.40;99.90
33207;DHT22;19565;46.602;11.534;2023-11-19T07:38:32;5.50;99.90
33207;DHT22;19565;46.602;11.534;2023-11-19T07:41:00;5.60;99.90
33207;DHT22;19565;46.602;11.534;2023-11-19T07:43:28;5.70;99.90
33207;DHT22;19565;46.602;11.534;2023-11-19T07:45:57;5.70;99.90
33207;DHT22;19565;46.602;11.534;2023-11-19T07:48:25;5.80;99.90
33207;DHT22;19565;46.602;11.534;2023-11-19T07:50:55;5.90;99.90
33207;DHT22;19565;46.602;11.534;2023-11-19T07:53:23;5.90;99.90
33207;DHT22;19565;46.602;11.534;2023-11-19T07:55:51;5.90;99.90
33207;DHT22;19565;46.602;11.534;2023-11-19T07:58:19;5.90;99.90
33207;DHT22;19565;46.602;11.534;2023-11-19T08:00:47;5.90;99.90
33207;DHT22;19565;46.602;11.534;2023-11-19T08:03:15;5.90;99.90
33207;DHT22;19565;46.602;11.534;2023-11-19T08:05:44;6.00;99.90
33207;DHT22;19565;46.602;11.534;2023-11-19T08:08:14;6.00;99.90
33207;DHT22;19565;46.602;11.534;2023-11-19T08:10:42;6.00;99.90
33207;DHT22;19565;46.602;11.534;2023-11-19T08:13:11;6.00;99.90
33207;DHT22;19565;46.602;11.534;2023-11-19T08:15:39;6.00;99.90
33207;DHT22;19565;46.602;11.534;2023-11-19T08:18:07;6.10;99.90
33207;DHT22;19565;46.602;11.534;2023-11-19T08:20:36;6.10;99.90
33207;DHT22;19565;46.602;11.534;2023-11-19T08:23:04;6.10;99.90
33207;DHT22;19565;46.602;11.534;2023-11-19T08:25:33;6.20;99.90
33207;DHT22;19565;46.602;11.534;2023-11-19T08:28:01;6.20;99.90
33207;DHT22;19565;46.602;11.534;2023-11-19T08:30:30;6.10;99.90
33207;DHT22;19565;46.602;11.534;2023-11-19T08:32:58;6.10;99.90
33207;DHT22;19565;46.602;11.534;2023-11-19T08:35:29;6.10;99.90
33207;DHT22;19565;46.602;11.534;2023-11-19T08:37:57;6.00;99.90
33207;DHT22;19565;46.602;11.534;2023-11-19T08:40:25;6.10;99.90
33207;DHT22;19565;46.602;11.534;2023-11-19T08:42:55;6.10;99.90
33207;DHT22;19565;46.602;11.534;2023-11-19T08:45:23;6.00;99.90
33207;DHT22;19565;46.602;11.534;2023-11-19T08:47:51;6.00;99.90
33207;DHT22;19565;46.602;11.534;2023-11-19T08:50:19;6.10;99.90
33207;DHT22;19565;46.602;11.534;2023-11-19T08:52:47;6.20;99.90
33207;DHT22;19565;46.602;11.534;2023-11-19T08:55:15;6.20;99.90
33207;DHT22;19565;46.602;11.534;2023-11-19T08:57:43;6.20;99.90
33207;DHT22;19565;46.602;11.534;2023-11-19T09:00:13;6.10;99.90
33207;DHT22;19565;46.602;11.534;2023-11-19T09:02:41;6.10;99.90
33207;DHT22;19565;46.602;11.534;2023-11-19T09:05:10;6.10;99.90
33207;DHT22;19565;46.602;11.534;2023-11-19T09:07:39;6.20;99.90
33207;DHT22;19565;46.602;11.534;2023-11-19T09:10:08;6.30;99.90
33207;DHT22;19565;46.602;11.534;2023-11-19T09:12:37;6.30;99.90
33207;DHT22;19565;46.602;11.534;2023-11-19T09:15:05;6.40;99.90
33207;DHT22;19565;46.602;11.534;2023-11-19T09:17:38;6.40;99.90
33207;DHT22;19565;46.602;11.534;2023-11-19T09:20:08;6.40;99.90
33207;DHT22;19565;46.602;11.534;2023-11-19T09:22:39;6.40;99.90
33207;DHT22;19565;46.602;11.534;2023-11-19T09:25:07;6.40;99.90
33207;DHT22;19565;46.602;11.534;2023-11-19T09:27:35;6.40;99.90
33207;DHT22;19565;46.602;11.534;2023-11-19T09:30:05;6.40;99.90
33207;DHT22;19565;46.602;11.534;2023-11-19T09:32:35;6.40;99.90
33207;DHT22;19565;46.602;11.534;2023-11-19T09:35:05;6.40;99.90
33207;DHT22;19565;46.602;11.534;2023-11-19T09:37:33;6.40;99.90
33207;DHT22;19565;46.602;11.534;2023-11-19T09:40:01;6.40;99.90
33207;DHT22;19565;46.602;11.534;2023-11-19T09:42:33;6.50;99.90
33207;DHT22;19565;46.602;11.534;2023-11-19T09:45:13;6.60;99.90
33207;DHT22;19565;46.602;11.534;2023-11-19T09:47:44;6.60;99.90
33207;DHT22;19565;46.602;11.534;2023-11-19T09:50:16;6.70;99.90
33207;DHT22;19565;46.602;11.534;2023-11-19T09:52:45;6.80;99.90
33207;DHT22;19565;46.602;11.534;2023-11-19T09:55:14;6.90;99.90
33207;DHT22;19565;46.602;11.534;2023-11-19T09:57:43;6.90;99.90
33207;DHT22;19565;46.602;11.534;2023-11-19T10:00:14;7.00;99.90
33207;DHT22;19565;46.602;11.534;2023-11-19T10:02:44;7.00;99.90
33207;DHT22;19565;46.602;11.534;2023-11-19T10:05:14;7.10;99.90
33207;DHT22;19565;46.602;11.534;2023-11-19T10:07:43;7.10;99.90
33207;DHT22;19565;46.602;11.534;2023-11-19T10:10:12;7.10;99.90
33207;DHT22;19565;46.602;11.534;2023-11-19T10:12:45;7.10;99.90
33207;DHT22;19565;46.602;11.534;2023-11-19T10:15:20;7.10;99.90
33207;DHT22;19565;46.602;11.534;2023-11-19T10:17:50;7.10;99.90
33207;DHT22;19565;46.602;11.534;2023-11-19T10:20:18;7.20;99.90
33207;DHT22;19565;46.602;11.534;2023-11-19T10:22:46;7.20;99.90
33207;DHT22;19565;46.602;11.534;2023-11-19T10:25:24;7.30;99.90
33207;DHT22;19565;46.602;11.534;2023-11-19T10:27:53;7.30;99.90
33207;DHT22;19565;46.602;11.534;2023-11-19T10:30:22;7.40;99.90
33207;DHT22;19565;46.602;11.534;2023-11-19T10:33:07;7.40;99.90
33207;DHT22;19565;46.602;11.534;2023-11-19T10:35:37;7.50;99.90
33207;DHT22;19565;46.602;11.534;2023-11-19T10:38:28;7.60;99.90
33207;DHT22;19565;46.602;11.534;2023-11-19T10:40:57;7.70;99.90
33207;DHT22;19565;46.602;11.534;2023-11-19T10:43:25;7.80;99.90
33207;DHT22;19565;46.602;11.534;2023-11-19T10:46:09;7.90;99.90
33207;DHT22;19565;46.602;11.534;2023-11-19T10:48:38;8.00;99.90
33207;DHT22;19565;46.602;11.534;2023-11-19T10:51:07;8.10;99.90
33207;DHT22;19565;46.602;11.534;2023-11-19T10:53:38;8.10;99.90
33207;DHT22;19565;46.602;11.534;2023-11-19T10:56:10;8.20;99.90
33207;DHT22;19565;46.602;11.534;2023-11-19T10:58:44;8.30;99.90
33207;DHT22;19565;46.602;11.534;2023-11-19T11:01:16;8.30;99.90
33207;DHT22;19565;46.602;11.534;2023-11-19T11:03:51;8.40;99.90
33207;DHT22;19565;46.602;11.534;2023-11-19T11:06:21;8.50;99.90
33207;DHT22;19565;46.602;11.534;2023-11-19T11:08:51;8.50;99.90
33207;DHT22;19565;46.602;11.534;2023-11-19T11:11:19;8.50;99.90
33207;DHT22;19565;46.602;11.534;2023-11-19T11:13:52;8.60;99.90
33207;DHT22;19565;46.602;11.534;2023-11-19T11:16:22;8.70;99.90
33207;DHT22;19565;46.602;11.534;2023-11-19T11:18:53;8.70;99.90
33207;DHT22;19565;46.602;11.534;2023-11-19T11:21:23;8.60;99.90
33207;DHT22;19565;46.602;11.534;2023-11-19T11:24:24;8.70;99.90
33207;DHT22;19565;46.602;11.534;2023-11-19T11:27:27;8.70;99.90
33207;DHT22;19565;46.602;11.534;2023-11-19T11:30:10;8.80;99.90
33207;DHT22;19565;46.602;11.534;2023-11-19T11:32:44;8.80;99.90
33207;DHT22;19565;46.602;11.534;2023-11-19T11:35:31;8.90;99.90
33207;DHT22;19565;46.602;11.534;2023-11-19T11:38:06;8.90;99.90
33207;DHT22;19565;46.602;11.534;2023-11-19T11:40:34;8.90;99.90
33207;DHT22;19565;46.602;11.534;2023-11-19T11:43:03;8.90;99.90
33207;DHT22;19565;46.602;11.534;2023-11-19T11:45:35;8.90;99.90
33207;DHT22;19565;46.602;11.534;2023-11-19T11:48:11;9.00;99.90
33207;DHT22;19565;46.602;11.534;2023-11-19T11:50:57;9.00;99.90
33207;DHT22;19565;46.602;11.534;2023-11-19T11:53:25;9.00;99.90
33207;DHT22;19565;46.602;11.534;2023-11-19T11:55:55;9.10;99.90
33207;DHT22;19565;46.602;11.534;2023-11-19T11:58:35;9.20;99.90
33207;DHT22;19565;46.602;11.534;2023-11-19T12:01:05;9.10;99.90
33207;DHT22;19565;46.602;11.534;2023-11-19T12:03:33;9.20;99.90
33207;DHT22;19565;46.602;11.534;2023-11-19T12:06:04;9.20;99.90
33207;DHT22;19565;46.602;11.534;2023-11-19T12:08:34;9.30;99.90
33207;DHT22;19565;46.602;11.534;2023-11-19T12:11:19;9.40;99.90
33207;DHT22;19565;46.602;11.534;2023-11-19T12:13:53;9.50;99.90
33207;DHT22;19565;46.602;11.534;2023-11-19T12:16:22;9.50;99.90
33207;DHT22;19565;46.602;11.534;2023-11-19T12:18:50;9.50;99.90
33207;DHT22;19565;46.602;11.534;2023-11-19T12:21:30;9.70;99.90
33207;DHT22;19565;46.602;11.534;2023-11-19T12:23:59;9.70;99.90
33207;DHT22;19565;46.602;11.534;2023-11-19T12:26:35;9.80;99.90
33207;DHT22;19565;46.602;11.534;2023-11-19T12:29:04;9.80;99.90
33207;DHT22;19565;46.602;11.534;2023-11-19T12:31:35;9.90;99.90
33207;DHT22;19565;46.602;11.534;2023-11-19T12:34:07;9.90;99.90
33207;DHT22;19565;46.602;11.534;2023-11-19T12:36:41;9.90;99.90
33207;DHT22;19565;46.602;11.534;2023-11-19T12:39:10;9.90;99.90
33207;DHT22;19565;46.602;11.534;2023-11-19T12:41:53;9.90;99.90
33207;DHT22;19565;46.602;11.534;2023-11-19T12:44:22;10.00;99.90
33207;DHT22;19565;46.602;11.534;2023-11-19T12:47:03;10.00;99.90
33207;DHT22;19565;46.602;11.534;2023-11-19T12:49:33;10.00;99.90
33207;DHT22;19565;46.602;11.534;2023-11-19T12:52:11;10.00;99.90
33207;DHT22;19565;46.602;11.534;2023-11-19T12:54:40;10.10;99.90
33207;DHT22;19565;46.602;11.534;2023-11-19T12:57:08;10.10;99.90
33207;DHT22;19565;46.602;11.534;2023-11-19T12:59:36;10.10;99.90
33207;DHT22;19565;46.602;11.534;2023-11-19T13:02:04;10.20;99.90
33207;DHT22;19565;46.602;11.534;2023-11-19T13:04:33;10.20;99.90
33207;DHT22;19565;46.602;11.534;2023-11-19T13:07:03;10.30;99.90
33207;DHT22;19565;46.602;11.534;2023-11-19T13:09:32;10.30;99.90
33207;DHT22;19565;46.602;11.534;2023-11-19T13:12:12;10.40;99.90
33207;DHT22;19565;46.602;11.534;2023-11-19T13:14:41;10.30;99.90
33207;DHT22;19565;46.602;11.534;2023-11-19T13:17:13;10.40;99.90
33207;DHT22;19565;46.602;11.534;2023-11-19T13:19:42;10.40;99.90
33207;DHT22;19565;46.602;11.534;2023-11-19T13:22:11;10.40;99.90
33207;DHT22;19565;46.602;11.534;2023-11-19T13:24:39;10.40;99.90
33207;DHT22;19565;46.602;11.534;2023-11-19T13:27:09;10.30;99.90
33207;DHT22;19565;46.602;11.534;2023-11-19T13:29:37;10.40;99.90
33207;DHT22;19565;46.602;11.534;2023-11-19T13:32:05;10.40;99.90
33207;DHT22;19565;46.602;11.534;2023-11-19T13:34:34;10.40;99.90
33207;DHT22;19565;46.602;11.534;2023-11-19T13:37:02;10.30;99.90
33207;DHT22;19565;46.602;11.534;2023-11-19T13:39:32;10.20;99.90
33207;DHT22;19565;46.602;11.534;2023-11-19T13:42:00;10.20;99.90
33207;DHT22;19565;46.602;11.534;2023-11-19T13:44:31;10.20;99.90
33207;DHT22;19565;46.602;11.534;2023-11-19T13:46:59;10.10;99.90
33207;DHT22;19565;46.602;11.534;2023-11-19T13:49:27;10.10;99.90
33207;DHT22;19565;46.602;11.534;2023-11-19T13:51:55;10.10;99.90
33207;DHT22;19565;46.602;11.534;2023-11-19T13:54:23;10.10;99.90
33207;DHT22;19565;46.602;11.534;2023-11-19T13:56:54;10.00;99.90
33207;DHT22;19565;46.602;11.534;2023-11-19T13:59:24;10.00;99.90
33207;DHT22;19565;46.602;11.534;2023-11-19T14:01:52;9.90;99.90
33207;DHT22;19565;46.602;11.534;2023-11-19T14:04:20;9.90;99.90
33207;DHT22;19565;46.602;11.534;2023-11-19T14:06:49;9.90;99.90
33207;DHT22;19565;46.602;11.534;2023-11-19T14:09:17;9.80;99.90
33207;DHT22;19565;46.602;11.534;2023-11-19T14:11:45;9.80;99.90
33207;DHT22;19565;46.602;11.534;2023-11-19T14:14:15;9.80;99.90
33207;DHT22;19565;46.602;11.534;2023-11-19T14:16:43;9.80;99.90
33207;DHT22;19565;46.602;11.534;2023-11-19T14:19:11;9.70;99.90
33207;DHT22;19565;46.602;11.534;2023-11-19T14:21:40;9.70;99.90
33207;DHT22;19565;46.602;11.534;2023-11-19T14:24:08;9.70;99.90
33207;DHT22;19565;46.602;11.534;2023-11-19T14:26:36;9.60;99.90
33207;DHT22;19565;46.602;11.534;2023-11-19T14:29:04;9.60;99.90
33207;DHT22;19565;46.602;11.534;2023-11-19T14:31:33;9.60;99.90
33207;DHT22;19565;46.602;11.534;2023-11-19T14:34:02;9.50;99.90
33207;DHT22;19565;46.602;11.534;2023-11-19T14:36:31;9.50;99.90
33207;DHT22;19565;46.602;11.534;2023-11-19T14:38:59;9.50;99.90
33207;DHT22;19565;46.602;11.534;2023-11-19T14:41:27;9.40;99.90
33207;DHT22;19565;46.602;11.534;2023-11-19T14:43:55;9.30;99.90
33207;DHT22;19565;46.602;11.534;2023-11-19T14:46:23;9.30;99.90
33207;DHT22;19565;46.602;11.534;2023-11-19T14:48:53;9.30;99.90
33207;DHT22;19565;46.602;11.534;2023-11-19T14:51:21;9.30;99.90
33207;DHT22;19565;46.602;11.534;2023-11-19T14:53:49;9.20;99.90
33207;DHT22;19565;46.602;11.534;2023-11-19T14:56:17;9.20;99.90
33207;DHT22;19565;46.602;11.534;2023-11-19T14:58:45;9.10;99.90
33207;DHT22;19565;46.602;11.534;2023-11-19T15:01:13;9.10;99.90
33207;DHT22;19565;46.602;11.534;2023-11-19T15:03:42;9.10;99.90
33207;DHT22;19565;46.602;11.534;2023-11-19T15:06:14;9.00;99.90
33207;DHT22;19565;46.602;11.534;2023-11-19T15:08:42;9.00;99.90
33207;DHT22;19565;46.602;11.534;2023-11-19T15:11:11;9.00;99.90
33207;DHT22;19565;46.602;11.534;2023-11-19T15:13:39;8.90;99.90
33207;DHT22;19565;46.602;11.534;2023-11-19T15:16:09;8.90;99.90
33207;DHT22;19565;46.602;11.534;2023-11-19T15:18:38;8.90;99.90
33207;DHT22;19565;46.602;11.534;2023-11-19T15:21:06;8.80;99.90
33207;DHT22;19565;46.602;11.534;2023-11-19T15:23:36;8.80;99.90
33207;DHT22;19565;46.602;11.534;2023-11-19T15:26:04;8.80;99.90
33207;DHT22;19565;46.602;11.534;2023-11-19T15:28:33;8.80;99.90
33207;DHT22;19565;46.602;11.534;2023-11-19T15:31:01;8.80;99.90
33207;DHT22;19565;46.602;11.534;2023-11-19T15:33:30;8.70;99.90
33207;DHT22;19565;46.602;11.534;2023-11-19T15:35:58;8.70;99.90
33207;DHT22;19565;46.602;11.534;2023-11-19T15:38:27;8.60;99.90
33207;DHT22;19565;46.602;11.534;2023-11-19T15:40:56;8.60;99.90
33207;DHT22;19565;46.602;11.534;2023-11-19T15:43:24;8.60;99.90
33207;DHT22;19565;46.602;11.534;2023-11-19T15:45:52;8.60;99.90